createdAt,value
2023-05-19T00:00:01.078Z,86.12
2023-05-19T00:02:33.964Z,85.70
2023-05-19T00:05:02.935Z,85.51
2023-05-19T00:07:32.777Z,85.40
2023-05-19T00:10:01.643Z,85.21
2023-05-19T00:12:30.195Z,85.06
2023-05-19T00:15:01.942Z,85.00
2023-05-19T00:17:30.033Z,85.15
2023-05-19T00:19:58.548Z,85.27
2023-05-19T00:22:26.621Z,85.22
2023-05-19T00:24:59.812Z,85.15
2023-05-19T00:27:31.262Z,85.15
2023-05-19T00:30:09.602Z,85.32
2023-05-19T00:32:37.801Z,85.41
2023-05-19T00:35:06.841Z,85.48
2023-05-19T00:37:34.995Z,85.33
2023-05-19T00:40:05.737Z,85.56
2023-05-19T00:42:34.250Z,85.70
2023-05-19T00:45:05.506Z,85.90
2023-05-19T00:47:34.299Z,85.89
2023-05-19T00:50:02.815Z,85.78
2023-05-19T00:52:31.445Z,85.83
2023-05-19T00:55:00.242Z,85.78
2023-05-19T00:57:28.881Z,85.90
2023-05-19T00:59:57.183Z,85.98
2023-05-19T01:02:25.767Z,85.98
2023-05-19T01:04:55.624Z,86.04
2023-05-19T01:07:23.834Z,86.07
2023-05-19T01:09:52.220Z,86.19
2023-05-19T01:12:20.518Z,86.14
2023-05-19T01:14:48.925Z,86.28
2023-05-19T01:17:16.949Z,86.31
2023-05-19T01:19:57.627Z,86.28
2023-05-19T01:22:34.566Z,86.35
2023-05-19T01:25:13.270Z,86.22
2023-05-19T01:28:06.464Z,86.18
2023-05-19T01:30:39.830Z,86.52
2023-05-19T01:33:16.013Z,86.53
2023-05-19T01:35:45.901Z,86.50
2023-05-19T01:38:17.507Z,86.67
2023-05-19T01:40:56.869Z,86.61
2023-05-19T01:43:27.492Z,86.67
2023-05-19T01:45:58.776Z,86.73
2023-05-19T01:48:29.960Z,86.80
2023-05-19T01:51:02.595Z,86.95
2023-05-19T01:53:31.160Z,87.12
2023-05-19T01:56:02.025Z,87.02
2023-05-19T01:58:47.151Z,86.96
2023-05-19T02:01:41.602Z,86.94
2023-05-19T02:04:18.714Z,86.95
2023-05-19T02:07:21.313Z,86.91
2023-05-19T02:10:25.245Z,86.82
2023-05-19T02:12:58.870Z,86.74
2023-05-19T02:15:46.424Z,86.73
2023-05-19T02:18:20.583Z,86.64
2023-05-19T02:20:52.047Z,86.79
2023-05-19T02:23:20.584Z,86.63
2023-05-19T02:25:51.652Z,86.77
2023-05-19T02:28:28.547Z,86.74
2023-05-19T02:30:59.443Z,87.17
2023-05-19T02:33:27.853Z,87.40
2023-05-19T02:35:57.391Z,87.25
2023-05-19T02:38:26.009Z,87.36
2023-05-19T02:40:54.335Z,88.06
2023-05-19T02:43:22.648Z,87.72
2023-05-19T02:45:51.028Z,87.80
2023-05-19T02:48:19.459Z,87.80
2023-05-19T02:50:47.972Z,87.77
2023-05-19T02:53:15.999Z,87.79
2023-05-19T02:55:44.173Z,87.95
2023-05-19T02:58:12.243Z,88.00
2023-05-19T03:00:40.442Z,87.82
2023-05-19T03:03:10.600Z,87.93
2023-05-19T03:05:39.196Z,87.85
2023-05-19T03:08:07.488Z,87.90
2023-05-19T03:10:36.356Z,89.77
2023-05-19T03:13:04.417Z,89.88
2023-05-19T03:15:32.547Z,89.37
2023-05-19T03:18:03.842Z,89.05
2023-05-19T03:20:32.480Z,88.90
2023-05-19T03:23:01.667Z,88.84
2023-05-19T03:25:30.154Z,88.82
2023-05-19T03:27:58.616Z,88.83
2023-05-19T03:30:26.958Z,88.80
2023-05-19T03:33:13.841Z,88.91
2023-05-19T03:35:42.180Z,88.92
2023-05-19T03:38:10.635Z,88.98
2023-05-19T03:40:42.308Z,89.05
2023-05-19T03:43:12.010Z,89.12
2023-05-19T03:45:46.514Z,89.06
2023-05-19T03:48:35.964Z,88.86
2023-05-19T03:51:22.514Z,88.55
2023-05-19T03:53:52.716Z,88.45
2023-05-19T03:56:26.743Z,88.35
2023-05-19T03:58:55.470Z,88.16
2023-05-19T04:01:23.863Z,87.80
2023-05-19T04:03:52.339Z,87.42
2023-05-19T04:06:20.576Z,87.52
2023-05-19T04:08:48.852Z,87.47
2023-05-19T04:11:17.334Z,87.23
2023-05-19T04:13:48.687Z,87.52
2023-05-19T04:16:17.416Z,87.51
2023-05-19T04:18:46.468Z,87.30
2023-05-19T04:21:14.735Z,86.89
2023-05-19T04:23:42.841Z,86.66
2023-05-19T04:26:12.436Z,86.42
2023-05-19T04:28:42.468Z,85.87
2023-05-19T04:31:14.692Z,85.31
2023-05-19T04:33:43.477Z,84.99
2023-05-19T04:36:13.888Z,84.71
2023-05-19T04:38:42.406Z,84.15
2023-05-19T04:41:14.749Z,83.58
2023-05-19T04:43:44.577Z,82.77
2023-05-19T04:46:14.156Z,81.38
2023-05-19T04:48:45.232Z,79.78
2023-05-19T04:51:14.472Z,76.01
2023-05-19T04:53:44.981Z,70.07
2023-05-19T04:56:17.350Z,67.99
2023-05-19T04:58:45.787Z,66.55
2023-05-19T05:01:15.803Z,63.16
2023-05-19T05:03:45.036Z,55.62
2023-05-19T05:06:13.116Z,53.55
2023-05-19T05:08:42.714Z,54.52
2023-05-19T05:11:11.794Z,52.60
2023-05-19T05:13:43.156Z,47.97
2023-05-19T05:16:12.462Z,48.66
2023-05-19T05:18:44.693Z,44.87
2023-05-19T05:21:14.220Z,42.33
2023-05-19T05:23:54.186Z,42.14
2023-05-19T05:29:37.068Z,41.33
2023-05-19T05:32:06.209Z,38.43
2023-05-19T05:34:35.942Z,40.60
2023-05-19T05:37:04.158Z,40.21
2023-05-19T05:39:32.559Z,39.57
2023-05-19T05:42:01.548Z,38.93
2023-05-19T05:44:30.671Z,40.78
2023-05-19T05:46:59.655Z,41.70
2023-05-19T05:49:28.183Z,42.10
2023-05-19T05:52:05.595Z,42.63
2023-05-19T05:54:35.996Z,42.84
2023-05-19T05:57:04.371Z,44.02
2023-05-19T05:59:33.972Z,44.50
2023-05-19T06:02:09.702Z,46.31
2023-05-19T06:04:38.376Z,46.83
2023-05-19T06:07:27.352Z,47.27
2023-05-19T06:10:09.048Z,47.57
2023-05-19T06:12:40.783Z,48.33
2023-05-19T06:15:10.645Z,49.03
2023-05-19T06:17:41.402Z,48.83
2023-05-19T06:20:10.293Z,49.17
2023-05-19T06:22:38.459Z,48.48
2023-05-19T06:25:09.045Z,49.19
2023-05-19T06:27:37.617Z,48.58
2023-05-19T06:30:08.721Z,49.22
2023-05-19T06:32:42.652Z,49.86
2023-05-19T06:35:11.152Z,49.46
2023-05-19T06:37:39.483Z,49.48
2023-05-19T06:40:08.634Z,49.73
2023-05-19T06:42:40.138Z,49.44
2023-05-19T06:45:16.220Z,50.24
2023-05-19T06:47:45.371Z,50.05
2023-05-19T06:50:14.736Z,50.19
2023-05-19T06:52:44.438Z,50.45
2023-05-19T06:55:13.966Z,50.82
2023-05-19T06:57:42.462Z,51.31
2023-05-19T07:00:17.595Z,51.44
2023-05-19T07:02:48.154Z,51.48
2023-05-19T07:05:17.699Z,51.04
2023-05-19T07:07:48.335Z,51.31
2023-05-19T07:10:19.530Z,51.54
2023-05-19T07:12:47.784Z,52.04
2023-05-19T07:15:19.930Z,52.11
2023-05-19T07:17:48.069Z,51.93
2023-05-19T07:20:16.620Z,51.72
2023-05-19T07:22:44.768Z,52.40
2023-05-19T07:25:15.231Z,52.07
2023-05-19T07:27:43.400Z,51.73
2023-05-19T07:30:12.103Z,51.48
2023-05-19T07:32:40.157Z,50.42
2023-05-19T07:35:08.830Z,50.56
2023-05-19T07:37:36.936Z,50.23
2023-05-19T07:40:06.847Z,49.79
2023-05-19T07:42:35.273Z,48.66
2023-05-19T07:45:03.782Z,48.93
2023-05-19T07:47:32.176Z,49.23
2023-05-19T07:50:00.271Z,49.13
2023-05-19T07:52:28.531Z,48.76
2023-05-19T07:54:56.607Z,47.90
2023-05-19T07:57:24.869Z,46.30
2023-05-19T08:00:27.328Z,47.98
2023-05-19T08:02:57.317Z,48.17
2023-05-19T08:05:29.781Z,49.16
2023-05-19T08:07:57.792Z,46.93
2023-05-19T08:10:26.061Z,47.48
2023-05-19T08:12:54.024Z,47.57
2023-05-19T08:15:22.117Z,47.63
2023-05-19T08:17:50.441Z,47.75
2023-05-19T08:20:18.856Z,47.59
2023-05-19T08:22:47.047Z,47.09
2023-05-19T08:25:15.193Z,45.67
2023-05-19T08:27:43.410Z,44.80
2023-05-19T08:30:12.470Z,43.41
2023-05-19T08:32:40.629Z,43.56
2023-05-19T08:35:09.249Z,44.18
2023-05-19T08:37:38.840Z,42.81
2023-05-19T08:40:09.025Z,42.32
2023-05-19T08:42:37.091Z,38.13
2023-05-19T08:45:06.282Z,39.08
2023-05-19T08:47:34.943Z,41.72
2023-05-19T08:50:08.028Z,42.84
2023-05-19T08:52:52.581Z,42.50
2023-05-19T08:55:47.173Z,43.26
2023-05-19T08:58:20.391Z,42.72
2023-05-19T09:00:49.530Z,41.13
2023-05-19T09:05:51.833Z,42.57
2023-05-19T09:08:20.090Z,40.76
2023-05-19T09:10:51.263Z,40.55
2023-05-19T09:13:19.801Z,41.00
2023-05-19T09:15:50.404Z,40.72
2023-05-19T09:18:18.521Z,40.67
2023-05-19T09:20:47.380Z,40.56
2023-05-19T09:23:16.936Z,39.77
2023-05-19T09:25:50.368Z,39.80
2023-05-19T09:28:29.499Z,40.64
2023-05-19T09:31:11.677Z,40.01
2023-05-19T09:33:45.617Z,40.74
2023-05-19T09:36:17.229Z,41.79
2023-05-19T09:38:45.718Z,42.81
2023-05-19T09:41:14.923Z,43.47
2023-05-19T09:43:43.203Z,43.76
2023-05-19T09:46:14.897Z,43.19
2023-05-19T09:48:44.976Z,43.24
2023-05-19T09:51:13.425Z,42.39
2023-05-19T09:53:42.263Z,42.65
2023-05-19T09:56:11.107Z,42.99
2023-05-19T09:58:44.107Z,43.14
2023-05-19T10:01:12.768Z,44.06
2023-05-19T10:03:49.653Z,44.51
2023-05-19T10:06:17.801Z,44.84
2023-05-19T10:08:48.100Z,44.87
2023-05-19T10:11:17.676Z,45.30
2023-05-19T10:13:50.988Z,43.86
2023-05-19T10:16:26.869Z,44.56
2023-05-19T10:18:56.761Z,44.30
2023-05-19T10:21:25.121Z,44.66
2023-05-19T10:23:53.250Z,44.46
2023-05-19T10:26:23.248Z,44.74
2023-05-19T10:28:51.805Z,44.38
2023-05-19T10:31:22.861Z,41.16
2023-05-19T10:34:32.715Z,41.34
2023-05-19T10:37:00.727Z,43.22
2023-05-19T10:39:37.545Z,43.57
2023-05-19T10:42:31.100Z,42.57
2023-05-19T10:45:20.440Z,38.97
2023-05-19T10:47:52.024Z,38.18
2023-05-19T10:50:21.021Z,35.49
2023-05-19T10:52:56.377Z,36.48
2023-05-19T10:55:50.386Z,36.52
2023-05-19T10:58:37.653Z,38.08
2023-05-19T11:01:13.656Z,38.61
2023-05-19T11:03:49.699Z,38.02
2023-05-19T11:06:32.440Z,37.41
2023-05-19T11:09:31.094Z,37.22
2023-05-19T11:12:06.947Z,37.62
2023-05-19T11:14:35.223Z,35.81
2023-05-19T11:17:05.613Z,34.77
2023-05-19T11:19:35.686Z,36.35
2023-05-19T11:22:14.086Z,34.96
2023-05-19T11:24:52.075Z,35.37
2023-05-19T11:27:29.117Z,34.83
2023-05-19T11:30:04.435Z,35.79
2023-05-19T11:32:34.076Z,36.07
2023-05-19T11:35:02.934Z,35.33
2023-05-19T11:37:34.718Z,36.79
2023-05-19T11:40:12.103Z,35.81
2023-05-19T11:42:42.148Z,36.08
2023-05-19T11:45:10.663Z,34.88
2023-05-19T11:47:57.166Z,34.81
2023-05-19T11:50:27.077Z,35.26
2023-05-19T11:52:57.813Z,34.83
2023-05-19T11:55:25.982Z,32.41
2023-05-19T11:58:05.824Z,33.31
2023-05-19T12:00:40.439Z,34.42
2023-05-19T12:03:11.002Z,34.81
2023-05-19T12:05:48.610Z,34.56
2023-05-19T12:08:19.123Z,33.35
2023-05-19T12:10:52.953Z,33.98
2023-05-19T12:13:23.148Z,34.04
2023-05-19T12:15:53.478Z,33.64
2023-05-19T12:18:21.843Z,34.30
2023-05-19T12:20:49.866Z,33.18
2023-05-19T12:23:18.194Z,34.23
2023-05-19T12:25:46.372Z,33.98
2023-05-19T12:28:16.624Z,32.86
2023-05-19T12:30:49.588Z,32.99
2023-05-19T12:33:22.829Z,33.72
2023-05-19T12:35:51.528Z,34.20
2023-05-19T12:38:20.964Z,34.17
2023-05-19T12:40:50.294Z,34.75
2023-05-19T12:43:22.484Z,34.55
2023-05-19T12:45:51.347Z,33.35
2023-05-19T12:48:22.778Z,33.48
2023-05-19T12:50:55.509Z,34.77
2023-05-19T12:53:27.868Z,34.63
2023-05-19T12:55:56.029Z,33.83
2023-05-19T12:58:24.303Z,33.83
2023-05-19T13:00:59.826Z,34.55
2023-05-19T13:03:28.483Z,34.48
2023-05-19T13:05:56.593Z,33.93
2023-05-19T13:08:25.108Z,33.58
2023-05-19T13:10:56.551Z,34.05
2023-05-19T13:13:25.313Z,33.75
2023-05-19T13:15:53.811Z,33.64
2023-05-19T13:18:22.074Z,34.05
2023-05-19T13:20:54.355Z,32.99
2023-05-19T13:23:22.352Z,33.15
2023-05-19T13:25:51.658Z,32.50
2023-05-19T13:28:20.194Z,33.09
2023-05-19T13:30:49.733Z,33.21
2023-05-19T13:33:20.479Z,34.24
2023-05-19T13:35:49.410Z,35.88
2023-05-19T13:38:17.437Z,37.56
2023-05-19T13:40:46.033Z,39.23
2023-05-19T13:43:15.168Z,41.24
2023-05-19T13:45:44.715Z,42.79
2023-05-19T13:48:13.344Z,43.34
2023-05-19T13:50:42.877Z,44.12
2023-05-19T13:53:11.773Z,45.51
2023-05-19T13:55:45.610Z,46.83
2023-05-19T13:58:19.413Z,48.30
2023-05-19T14:00:47.996Z,49.40
2023-05-19T14:03:19.901Z,50.02
2023-05-19T14:05:59.167Z,49.39
2023-05-19T14:08:28.218Z,49.52
2023-05-19T14:11:05.543Z,49.28
2023-05-19T14:16:09.246Z,50.68
2023-05-19T14:18:37.792Z,50.25
2023-05-19T14:21:08.964Z,50.03
2023-05-19T14:23:42.400Z,50.46
2023-05-19T14:26:19.957Z,50.78
2023-05-19T14:28:49.145Z,50.58
2023-05-19T14:31:19.835Z,51.07
2023-05-19T14:33:48.811Z,50.39
2023-05-19T14:36:18.819Z,50.16
2023-05-19T14:38:47.297Z,49.52
2023-05-19T14:41:15.555Z,49.22
2023-05-19T14:43:43.859Z,48.90
2023-05-19T14:46:11.889Z,48.73
2023-05-19T14:48:40.114Z,48.92
2023-05-19T14:51:08.421Z,49.00
2023-05-19T14:53:36.813Z,49.01
2023-05-19T14:56:06.539Z,49.07
2023-05-19T14:58:34.833Z,48.73
2023-05-19T15:01:02.868Z,48.45
2023-05-19T15:03:31.354Z,48.48
2023-05-19T15:06:00.310Z,48.67
2023-05-19T15:08:28.495Z,48.76
2023-05-19T15:10:56.557Z,48.29
2023-05-19T15:13:26.425Z,48.16
2023-05-19T15:16:08.448Z,47.75
2023-05-19T15:18:44.283Z,47.75
2023-05-19T15:21:12.804Z,47.42
2023-05-19T15:23:41.183Z,47.24
2023-05-19T15:26:09.664Z,46.91
2023-05-19T15:28:38.133Z,46.01
2023-05-19T15:31:07.386Z,46.13
2023-05-19T15:33:36.306Z,44.96
2023-05-19T15:36:07.062Z,44.85
2023-05-19T15:38:36.378Z,44.52
2023-05-19T15:41:08.411Z,44.33
2023-05-19T15:43:37.906Z,43.17
2023-05-19T15:46:06.885Z,43.22
2023-05-19T15:48:35.317Z,43.63
2023-05-19T15:51:03.606Z,43.78
2023-05-19T15:53:31.670Z,44.16
2023-05-19T15:56:00.917Z,43.70
2023-05-19T15:58:30.244Z,42.56
2023-05-19T16:00:58.420Z,43.59
2023-05-19T16:03:27.492Z,44.28
2023-05-19T16:05:56.742Z,45.38
2023-05-19T16:08:25.293Z,46.65
2023-05-19T16:10:55.082Z,47.89
2023-05-19T16:13:23.576Z,48.83
2023-05-19T16:15:52.733Z,48.91
2023-05-19T16:18:21.300Z,49.59
2023-05-19T16:20:51.328Z,49.89
2023-05-19T16:23:19.571Z,49.86
2023-05-19T16:25:48.935Z,49.32
2023-05-19T16:28:17.286Z,50.46
2023-05-19T16:30:46.281Z,51.58
2023-05-19T16:33:14.322Z,51.98
2023-05-19T16:35:44.645Z,50.99
2023-05-19T16:38:12.927Z,50.85
2023-05-19T16:40:41.028Z,49.89
2023-05-19T16:43:09.221Z,49.74
2023-05-19T16:45:38.437Z,51.10
2023-05-19T16:48:06.652Z,52.08
2023-05-19T16:50:35.128Z,52.57
2023-05-19T16:53:03.454Z,53.61
2023-05-19T16:55:31.758Z,54.65
2023-05-19T16:57:59.995Z,55.74
2023-05-19T17:00:29.495Z,55.83
2023-05-19T17:02:57.716Z,55.80
2023-05-19T17:05:27.379Z,55.52
2023-05-19T17:07:55.859Z,55.82
2023-05-19T17:10:24.105Z,56.35
2023-05-19T17:12:52.593Z,56.99
2023-05-19T17:15:21.106Z,56.07
2023-05-19T17:17:49.802Z,56.45
2023-05-19T17:20:20.333Z,58.06
2023-05-19T17:22:48.450Z,58.91
2023-05-19T17:25:16.696Z,59.82
2023-05-19T17:27:44.900Z,59.85
2023-05-19T17:30:14.224Z,60.35
2023-05-19T17:32:42.765Z,61.21
2023-05-19T17:35:11.415Z,61.73
2023-05-19T17:37:39.521Z,61.48
2023-05-19T17:40:08.713Z,61.84
2023-05-19T17:42:36.962Z,61.52
2023-05-19T17:45:07.778Z,61.45
2023-05-19T17:47:36.018Z,61.88
2023-05-19T17:50:04.648Z,62.17
2023-05-19T17:52:33.509Z,62.57
2023-05-19T17:55:02.080Z,62.99
2023-05-19T17:57:32.724Z,63.56
2023-05-19T18:00:01.580Z,63.53
2023-05-19T18:02:33.571Z,63.97
2023-05-19T18:05:02.214Z,64.02
2023-05-19T18:07:54.198Z,64.65
2023-05-19T18:10:24.622Z,64.72
2023-05-19T18:13:01.682Z,65.40
2023-05-19T18:15:30.035Z,65.60
2023-05-19T18:17:59.255Z,65.78
2023-05-19T18:20:28.816Z,65.14
2023-05-19T18:22:59.833Z,65.42
2023-05-19T18:25:31.067Z,65.90
2023-05-19T18:28:08.373Z,66.51
2023-05-19T18:30:36.663Z,66.63
2023-05-19T18:33:07.314Z,66.89
2023-05-19T18:35:37.511Z,67.30
2023-05-19T18:38:07.972Z,67.61
2023-05-19T18:40:36.485Z,68.15
2023-05-19T18:43:05.181Z,68.63
2023-05-19T18:45:36.930Z,69.14
2023-05-19T18:48:07.403Z,69.34
2023-05-19T18:50:36.584Z,68.54
2023-05-19T18:53:04.705Z,69.12
2023-05-19T18:55:38.287Z,69.80
2023-05-19T18:58:07.093Z,70.09
2023-05-19T19:00:36.155Z,70.00
2023-05-19T19:03:05.000Z,70.12
2023-05-19T19:05:33.569Z,70.53
2023-05-19T19:08:10.073Z,70.48
2023-05-19T19:10:40.731Z,71.02
2023-05-19T19:13:09.206Z,70.78
2023-05-19T19:15:39.704Z,70.73
2023-05-19T19:18:08.786Z,70.70
2023-05-19T19:20:37.273Z,70.96
2023-05-19T19:23:06.894Z,71.94
2023-05-19T19:25:35.708Z,72.11
2023-05-19T19:28:03.992Z,72.16
2023-05-19T19:30:32.476Z,72.04
2023-05-19T19:33:01.301Z,71.52
2023-05-19T19:35:29.801Z,72.14
2023-05-19T19:38:01.625Z,72.39
2023-05-19T19:40:36.530Z,72.45
2023-05-19T19:43:07.624Z,72.39
2023-05-19T19:45:39.458Z,72.55
2023-05-19T19:48:07.956Z,72.74
2023-05-19T19:50:36.609Z,72.47
2023-05-19T19:53:05.132Z,72.75
2023-05-19T19:55:35.982Z,72.92
2023-05-19T19:58:04.288Z,72.60
2023-05-19T20:00:32.766Z,72.61
2023-05-19T20:03:05.157Z,72.47
2023-05-19T20:05:38.056Z,72.62
2023-05-19T20:08:06.248Z,72.46
2023-05-19T20:10:34.951Z,72.53
2023-05-19T20:13:03.558Z,73.00
2023-05-19T20:15:31.987Z,73.17
2023-05-19T20:18:00.386Z,73.24
2023-05-19T20:20:29.344Z,73.04
2023-05-19T20:22:57.680Z,73.12
2023-05-19T20:25:26.277Z,73.37
2023-05-19T20:27:54.575Z,73.92
2023-05-19T20:30:23.084Z,73.85
2023-05-19T20:32:51.719Z,73.92
2023-05-19T20:35:20.108Z,73.96
2023-05-19T20:37:49.514Z,74.02
2023-05-19T20:40:18.708Z,74.00
2023-05-19T20:42:47.067Z,74.11
2023-05-19T20:45:18.574Z,73.82
2023-05-19T20:47:46.931Z,73.98
2023-05-19T20:50:15.345Z,74.20
2023-05-19T20:52:44.373Z,74.22
2023-05-19T20:55:12.801Z,74.31
2023-05-19T20:57:41.208Z,74.51
2023-05-19T21:00:11.008Z,74.56
2023-05-19T21:02:39.590Z,75.36
2023-05-19T21:05:08.809Z,75.02
2023-05-19T21:07:37.105Z,75.11
2023-05-19T21:10:06.145Z,75.19
2023-05-19T21:12:35.338Z,75.16
2023-05-19T21:15:06.027Z,75.30
2023-05-19T21:17:43.471Z,75.57
2023-05-19T21:20:12.324Z,75.76
2023-05-19T21:22:41.463Z,75.80
2023-05-19T21:25:09.758Z,75.91
2023-05-19T21:27:39.736Z,76.18
2023-05-19T21:30:09.908Z,76.24
2023-05-19T21:32:38.302Z,76.42
2023-05-19T21:35:07.028Z,76.52
2023-05-19T21:37:36.368Z,76.86
2023-05-19T21:40:05.137Z,77.18
2023-05-19T21:42:33.448Z,77.30
2023-05-19T21:45:02.389Z,77.37
2023-05-19T21:47:33.411Z,77.41
2023-05-19T21:50:01.895Z,77.52
2023-05-19T21:52:31.374Z,77.62
2023-05-19T21:54:59.989Z,78.58
2023-05-19T21:57:30.958Z,78.02
2023-05-19T21:59:59.510Z,77.80
2023-05-19T22:02:27.943Z,77.90
2023-05-19T22:04:56.261Z,78.36
2023-05-19T22:07:27.100Z,78.12
2023-05-19T22:09:58.367Z,77.82
2023-05-19T22:12:27.168Z,77.97
2023-05-19T22:14:55.713Z,78.20
2023-05-19T22:17:24.576Z,78.17
2023-05-19T22:19:56.016Z,77.84
2023-05-19T22:22:24.662Z,78.22
2023-05-19T22:25:22.656Z,78.32
2023-05-19T22:28:14.652Z,77.96
2023-05-19T22:30:44.391Z,78.27
2023-05-19T22:33:13.160Z,78.25
2023-05-19T22:35:41.804Z,77.90
2023-05-19T22:38:10.605Z,78.02
2023-05-19T22:40:39.354Z,78.42
2023-05-19T22:43:08.183Z,78.49
2023-05-19T22:45:37.005Z,79.09
2023-05-19T22:48:05.717Z,79.14
2023-05-19T22:50:34.417Z,79.02
2023-05-19T22:53:02.827Z,79.32
2023-05-19T22:55:31.605Z,79.01
2023-05-19T22:58:00.097Z,79.14
2023-05-19T23:00:31.275Z,79.68
2023-05-19T23:02:59.586Z,79.27
2023-05-19T23:05:28.181Z,79.42
2023-05-19T23:07:59.736Z,80.24
2023-05-19T23:10:28.090Z,79.94
2023-05-19T23:12:56.503Z,79.67
2023-05-19T23:15:26.913Z,79.52
2023-05-19T23:17:55.143Z,79.25
2023-05-19T23:20:26.661Z,79.62
2023-05-19T23:22:55.170Z,80.14
2023-05-19T23:25:23.737Z,80.94
2023-05-19T23:27:52.153Z,80.65
2023-05-19T23:30:20.630Z,80.65
2023-05-19T23:32:48.988Z,80.45
2023-05-19T23:35:17.501Z,80.83
2023-05-19T23:37:45.935Z,81.55
2023-05-19T23:40:22.132Z,80.91
2023-05-19T23:42:50.814Z,80.49
2023-05-19T23:45:19.228Z,83.18
2023-05-19T23:47:47.421Z,83.08
2023-05-19T23:50:15.979Z,82.01
2023-05-19T23:52:44.383Z,81.80
2023-05-19T23:55:13.814Z,81.84
2023-05-19T23:57:42.649Z,82.15
